createdAt,value
2023-04-18T00:00:33.607Z,146831.84
2023-04-18T00:01:38.269Z,146821.00
2023-04-18T00:02:40.886Z,146819.78
2023-04-18T00:03:45.878Z,146824.63
2023-04-18T00:04:50.350Z,146841.50
2023-04-18T00:05:53.262Z,146846.31
2023-04-18T00:06:55.757Z,146843.91
2023-04-18T00:07:57.872Z,146819.78
2023-04-18T00:09:00.067Z,146824.63
2023-04-18T00:10:03.937Z,146849.94
2023-04-18T00:11:06.184Z,146852.41
2023-04-18T00:12:08.868Z,146857.22
2023-04-18T00:13:12.094Z,146851.19
2023-04-18T00:14:14.488Z,146852.41
2023-04-18T00:15:17.084Z,146856.00
2023-04-18T00:16:19.406Z,146841.50
2023-04-18T00:17:22.253Z,146846.31
2023-04-18T00:18:26.665Z,146851.19
2023-04-18T00:19:28.868Z,146851.19
2023-04-18T00:20:31.503Z,146848.72
2023-04-18T00:21:33.626Z,146835.47
2023-04-18T00:22:36.482Z,146827.03
2023-04-18T00:23:39.792Z,146824.63
2023-04-18T00:24:41.959Z,146836.66
2023-04-18T00:25:44.198Z,146829.44
2023-04-18T00:26:46.357Z,146824.63
2023-04-18T00:27:48.589Z,146834.25
2023-04-18T00:28:51.216Z,146834.25
2023-04-18T00:29:53.415Z,146817.34
2023-04-18T00:30:55.567Z,146824.63
2023-04-18T00:31:58.746Z,146819.78
2023-04-18T00:33:01.198Z,146817.34
2023-04-18T00:34:03.420Z,146810.09
2023-04-18T00:35:06.148Z,146817.34
2023-04-18T00:36:08.757Z,146819.78
2023-04-18T00:37:10.918Z,146824.63
2023-04-18T00:38:13.057Z,146822.19
2023-04-18T00:39:15.970Z,146834.25
2023-04-18T00:40:18.707Z,146825.81
2023-04-18T00:41:22.230Z,146851.19
2023-04-18T00:42:25.987Z,146843.91
2023-04-18T00:43:28.205Z,146843.91
2023-04-18T00:44:31.574Z,146852.41
2023-04-18T00:45:33.774Z,146843.91
2023-04-18T00:46:36.026Z,146841.50
2023-04-18T00:47:38.166Z,146851.19
2023-04-18T00:48:41.400Z,146843.91
2023-04-18T00:49:45.038Z,146846.31
2023-04-18T00:50:47.211Z,146836.66
2023-04-18T00:51:50.582Z,146835.47
2023-04-18T00:52:53.872Z,146853.59
2023-04-18T00:53:56.988Z,146836.66
2023-04-18T00:55:00.246Z,146828.22
2023-04-18T00:56:02.667Z,146831.84
2023-04-18T00:57:06.305Z,146824.63
2023-04-18T00:58:09.238Z,146849.94
2023-04-18T00:59:11.998Z,146831.84
2023-04-18T01:00:15.477Z,146829.44
2023-04-18T01:01:18.205Z,146834.25
2023-04-18T01:02:20.525Z,146846.31
2023-04-18T01:03:23.133Z,146849.94
2023-04-18T01:04:25.536Z,146853.59
2023-04-18T01:05:27.841Z,146866.88
2023-04-18T01:06:30.986Z,146852.41
2023-04-18T01:07:35.916Z,146857.22
2023-04-18T01:08:38.246Z,146853.59
2023-04-18T01:09:40.757Z,146851.19
2023-04-18T01:10:43.098Z,146860.84
2023-04-18T01:11:45.368Z,146868.06
2023-04-18T01:12:47.573Z,146858.41
2023-04-18T01:14:04.303Z,146901.88
2023-04-18T01:15:08.580Z,146887.41
2023-04-18T01:16:11.972Z,146872.88
2023-04-18T01:17:14.152Z,146882.53
2023-04-18T01:18:17.331Z,146883.78
2023-04-18T01:19:19.532Z,146877.72
2023-04-18T01:20:22.629Z,146889.81
2023-04-18T01:21:26.503Z,146885.00
2023-04-18T01:22:30.270Z,146888.63
2023-04-18T01:23:32.789Z,146880.13
2023-04-18T01:24:35.843Z,146865.66
2023-04-18T01:25:38.776Z,146868.06
2023-04-18T01:26:43.619Z,146868.06
2023-04-18T01:27:45.794Z,146868.06
2023-04-18T01:28:47.919Z,146886.19
2023-04-18T01:29:50.146Z,146880.13
2023-04-18T01:30:52.361Z,146845.13
2023-04-18T01:31:54.599Z,146860.84
2023-04-18T01:32:56.812Z,146862.03
2023-04-18T01:34:01.592Z,146865.66
2023-04-18T01:35:04.107Z,146863.25
2023-04-18T01:36:06.702Z,146851.19
2023-04-18T01:37:08.850Z,146860.84
2023-04-18T01:38:11.405Z,146877.72
2023-04-18T01:39:13.652Z,146868.06
2023-04-18T01:40:16.100Z,146863.25
2023-04-18T01:41:18.311Z,146863.25
2023-04-18T01:42:20.468Z,146868.06
2023-04-18T01:43:22.628Z,146868.06
2023-04-18T01:44:24.765Z,146863.25
2023-04-18T01:45:26.905Z,146865.66
2023-04-18T01:46:29.172Z,146868.06
2023-04-18T01:47:31.522Z,146875.31
2023-04-18T01:48:33.803Z,146877.72
2023-04-18T01:49:35.939Z,146881.34
2023-04-18T01:50:38.071Z,146877.72
2023-04-18T01:51:40.858Z,146886.19
2023-04-18T01:52:43.167Z,146868.06
2023-04-18T01:53:45.416Z,146877.72
2023-04-18T01:54:47.671Z,146880.13
2023-04-18T01:55:50.493Z,146875.31
2023-04-18T01:56:52.630Z,146885.00
2023-04-18T01:57:54.786Z,146876.50
2023-04-18T01:58:56.974Z,146864.44
2023-04-18T01:59:59.236Z,146865.66
2023-04-18T02:01:01.656Z,146856.00
2023-04-18T02:02:04.044Z,146865.66
2023-04-18T02:03:06.435Z,146877.72
2023-04-18T02:04:08.890Z,146863.25
2023-04-18T02:05:11.304Z,146862.03
2023-04-18T02:06:14.453Z,146863.25
2023-04-18T02:07:16.702Z,146853.59
2023-04-18T02:08:18.990Z,146846.31
2023-04-18T02:09:21.265Z,146842.69
2023-04-18T02:10:23.892Z,146851.19
2023-04-18T02:11:26.215Z,146848.72
2023-04-18T02:12:28.404Z,146848.72
2023-04-18T02:13:31.030Z,146848.72
2023-04-18T02:14:35.226Z,146869.28
2023-04-18T02:15:37.618Z,146837.88
2023-04-18T02:16:40.527Z,146860.84
2023-04-18T02:17:42.836Z,146843.91
2023-04-18T02:18:45.341Z,146845.13
2023-04-18T02:19:51.217Z,146849.94
2023-04-18T02:20:53.447Z,146836.66
2023-04-18T02:21:57.387Z,146843.91
2023-04-18T02:23:03.020Z,146853.59
2023-04-18T02:24:05.279Z,146828.22
2023-04-18T02:25:07.965Z,146839.09
2023-04-18T02:26:10.228Z,146846.31
2023-04-18T02:27:12.505Z,146842.69
2023-04-18T02:28:14.677Z,146831.84
2023-04-18T02:29:16.952Z,146835.47
2023-04-18T02:30:19.189Z,146851.19
2023-04-18T02:31:21.395Z,146825.81
2023-04-18T02:32:23.603Z,146839.09
2023-04-18T02:33:25.800Z,146835.47
2023-04-18T02:34:28.324Z,146822.19
2023-04-18T02:35:30.894Z,146818.59
2023-04-18T02:36:33.586Z,146834.25
2023-04-18T02:37:35.724Z,146823.41
2023-04-18T02:38:37.899Z,146807.69
2023-04-18T02:39:40.194Z,146810.09
2023-04-18T02:40:42.428Z,146819.78
2023-04-18T02:41:44.621Z,146834.25
2023-04-18T02:42:46.831Z,146833.06
2023-04-18T02:43:50.515Z,146830.66
2023-04-18T02:44:54.807Z,146834.25
2023-04-18T02:45:57.225Z,146835.47
2023-04-18T02:46:59.404Z,146811.31
2023-04-18T02:48:01.631Z,146807.69
2023-04-18T02:49:03.901Z,146812.50
2023-04-18T02:50:07.634Z,146821.00
2023-04-18T02:51:11.470Z,146801.66
2023-04-18T02:52:14.601Z,146806.47
2023-04-18T02:53:17.194Z,146819.78
2023-04-18T02:54:27.095Z,146831.84
2023-04-18T02:55:35.256Z,146829.44
2023-04-18T02:56:40.026Z,146848.72
2023-04-18T02:57:57.483Z,146829.44
2023-04-18T02:59:30.244Z,146839.09
2023-04-18T03:00:53.990Z,146851.19
2023-04-18T03:02:16.127Z,146819.78
2023-04-18T03:03:25.916Z,146824.63
2023-04-18T03:04:34.635Z,146817.34
2023-04-18T03:05:39.939Z,146822.19
2023-04-18T03:06:42.619Z,146821.00
2023-04-18T03:07:45.238Z,146827.03
2023-04-18T03:08:47.465Z,146808.91
2023-04-18T03:09:49.683Z,146824.63
2023-04-18T03:11:00.203Z,146823.41
2023-04-18T03:12:04.807Z,146835.47
2023-04-18T03:13:07.521Z,146836.66
2023-04-18T03:14:09.700Z,146825.81
2023-04-18T03:15:19.890Z,146841.50
2023-04-18T03:16:22.892Z,146824.63
2023-04-18T03:17:25.364Z,146824.63
2023-04-18T03:18:28.140Z,146822.19
2023-04-18T03:19:33.044Z,146817.34
2023-04-18T03:20:41.167Z,146827.03
2023-04-18T03:21:43.750Z,146827.03
2023-04-18T03:22:47.295Z,146831.84
2023-04-18T03:23:53.231Z,146798.03
2023-04-18T03:24:57.109Z,146800.44
2023-04-18T03:26:13.791Z,146807.69
2023-04-18T03:27:17.677Z,146805.28
2023-04-18T03:28:21.044Z,146810.09
2023-04-18T03:29:23.256Z,146814.91
2023-04-18T03:30:27.032Z,146813.72
2023-04-18T03:31:32.026Z,146812.50
2023-04-18T03:32:35.205Z,146807.69
2023-04-18T03:33:39.159Z,146823.41
2023-04-18T03:34:45.042Z,146814.91
2023-04-18T03:35:47.270Z,146812.50
2023-04-18T03:36:49.821Z,146824.63
2023-04-18T03:37:52.464Z,146834.25
2023-04-18T03:38:59.681Z,146831.84
2023-04-18T03:40:02.550Z,146837.88
2023-04-18T03:41:05.719Z,146822.19
2023-04-18T03:42:10.368Z,146824.63
2023-04-18T03:43:12.543Z,146814.91
2023-04-18T03:44:14.980Z,146813.72
2023-04-18T03:45:17.628Z,146814.91
2023-04-18T03:46:22.189Z,146798.03
2023-04-18T03:47:27.053Z,146807.69
2023-04-18T03:48:35.778Z,146808.91
2023-04-18T03:49:40.588Z,146829.44
2023-04-18T03:50:43.446Z,146813.72
2023-04-18T03:51:48.064Z,146824.63
2023-04-18T03:52:50.617Z,146812.50
2023-04-18T03:53:53.484Z,146810.09
2023-04-18T03:54:55.727Z,146829.44
2023-04-18T03:56:01.043Z,146823.41
2023-04-18T03:57:17.730Z,146819.78
2023-04-18T03:58:23.709Z,146819.78
2023-04-18T03:59:26.631Z,146813.72
2023-04-18T04:00:30.248Z,146805.28
2023-04-18T04:01:41.145Z,146798.03
2023-04-18T04:02:43.828Z,146812.50
2023-04-18T04:03:53.894Z,146806.47
2023-04-18T04:04:56.646Z,146811.31
2023-04-18T04:05:59.141Z,146814.91
2023-04-18T04:07:01.615Z,146810.09
2023-04-18T04:08:03.941Z,146812.50
2023-04-18T04:09:06.464Z,146819.78
2023-04-18T04:10:09.278Z,146817.34
2023-04-18T04:11:11.639Z,146795.63
2023-04-18T04:12:14.522Z,146790.81
2023-04-18T04:13:18.055Z,146804.06
2023-04-18T04:14:21.491Z,146800.44
2023-04-18T04:15:23.772Z,146807.69
2023-04-18T04:16:32.024Z,146804.06
2023-04-18T04:17:34.754Z,146786.00
2023-04-18T04:18:36.999Z,146786.00
2023-04-18T04:19:39.153Z,146798.03
2023-04-18T04:20:47.905Z,146799.25
2023-04-18T04:22:13.465Z,146789.59
2023-04-18T04:23:16.882Z,146795.63
2023-04-18T04:24:22.715Z,146796.84
2023-04-18T04:25:29.749Z,146822.19
2023-04-18T04:26:35.701Z,146775.09
2023-04-18T04:27:46.455Z,146781.13
2023-04-18T04:28:51.614Z,146790.81
2023-04-18T04:29:57.564Z,146798.03
2023-04-18T04:30:59.948Z,146794.44
2023-04-18T04:32:03.769Z,146793.22
2023-04-18T04:33:10.423Z,146793.22
2023-04-18T04:34:13.289Z,146793.22
2023-04-18T04:35:16.040Z,146782.31
2023-04-18T04:36:19.027Z,146796.84
2023-04-18T04:37:22.667Z,146800.44
2023-04-18T04:38:38.484Z,146822.19
2023-04-18T04:39:40.704Z,146816.13
2023-04-18T04:40:58.205Z,146821.00
2023-04-18T04:42:04.389Z,146814.91
2023-04-18T04:43:15.553Z,146819.78
2023-04-18T04:44:22.358Z,146812.50
2023-04-18T04:45:24.691Z,146817.34
2023-04-18T04:46:30.287Z,146817.34
2023-04-18T04:47:33.358Z,146806.47
2023-04-18T04:48:35.716Z,146812.50
2023-04-18T04:49:39.187Z,146811.31
2023-04-18T04:50:42.089Z,146812.50
2023-04-18T04:51:47.002Z,146833.06
2023-04-18T04:52:49.830Z,146817.34
2023-04-18T04:53:52.105Z,146831.84
2023-04-18T04:54:54.312Z,146817.34
2023-04-18T04:55:58.910Z,146834.25
2023-04-18T04:57:02.224Z,146810.09
2023-04-18T04:58:04.497Z,146814.91
2023-04-18T04:59:17.408Z,146833.06
2023-04-18T05:00:21.751Z,146824.63
2023-04-18T05:01:24.387Z,146829.44
2023-04-18T05:02:26.703Z,146847.53
2023-04-18T05:03:29.075Z,146845.13
2023-04-18T05:04:32.716Z,146829.44
2023-04-18T05:05:35.008Z,146853.59
2023-04-18T05:06:39.579Z,146868.06
2023-04-18T05:07:42.453Z,146863.25
2023-04-18T05:08:44.591Z,146866.88
2023-04-18T05:09:46.741Z,146882.53
2023-04-18T05:10:50.119Z,146876.50
2023-04-18T05:11:52.396Z,146885.00
2023-04-18T05:12:54.621Z,146870.47
2023-04-18T05:13:56.773Z,146877.72
2023-04-18T05:14:58.955Z,146889.81
2023-04-18T05:16:01.480Z,146897.06
2023-04-18T05:17:04.267Z,146888.63
2023-04-18T05:18:06.807Z,146885.00
2023-04-18T05:19:09.001Z,146905.50
2023-04-18T05:20:11.653Z,146916.41
2023-04-18T05:21:13.902Z,146910.31
2023-04-18T05:22:16.029Z,146918.81
2023-04-18T05:23:18.386Z,146912.75
2023-04-18T05:24:20.628Z,146916.41
2023-04-18T05:25:22.948Z,146921.22
2023-04-18T05:26:25.212Z,146906.72
2023-04-18T05:27:27.858Z,146926.03
2023-04-18T05:28:30.254Z,146923.63
2023-04-18T05:29:32.495Z,146906.72
2023-04-18T05:30:34.754Z,146922.44
2023-04-18T05:31:37.134Z,146921.22
2023-04-18T05:32:39.395Z,146924.84
2023-04-18T05:33:41.775Z,146940.53
2023-04-18T05:34:44.173Z,146981.63
2023-04-18T05:35:46.742Z,146981.63
2023-04-18T05:36:49.111Z,146986.44
2023-04-18T05:37:51.649Z,147003.34
2023-04-18T05:38:53.793Z,147000.94
2023-04-18T05:39:56.010Z,147022.69
2023-04-18T05:41:00.338Z,147025.09
2023-04-18T05:42:02.821Z,147022.69
2023-04-18T05:43:04.987Z,147013.03
2023-04-18T05:44:07.117Z,147009.38
2023-04-18T05:45:09.722Z,147019.06
2023-04-18T05:46:12.510Z,147022.69
2023-04-18T05:47:14.811Z,147008.16
2023-04-18T05:48:16.954Z,146984.03
2023-04-18T05:49:19.706Z,146967.09
2023-04-18T05:50:23.121Z,146965.91
2023-04-18T05:51:26.428Z,146971.94
2023-04-18T05:52:28.621Z,146981.63
2023-04-18T05:53:30.776Z,146970.72
2023-04-18T05:54:32.931Z,146990.06
2023-04-18T05:55:35.211Z,146992.47
2023-04-18T05:56:37.748Z,147015.44
2023-04-18T05:57:40.577Z,147054.09
2023-04-18T05:58:42.744Z,147083.09
2023-04-18T05:59:44.941Z,147080.69
2023-04-18T06:00:48.209Z,147083.09
2023-04-18T06:01:50.452Z,147039.56
2023-04-18T06:02:52.862Z,147022.69
2023-04-18T06:03:55.878Z,147038.38
2023-04-18T06:04:58.403Z,147017.88
2023-04-18T06:06:00.820Z,147008.16
2023-04-18T06:07:03.098Z,147002.13
2023-04-18T06:08:05.304Z,147011.78
2023-04-18T06:09:07.771Z,146981.63
2023-04-18T06:10:13.336Z,146962.28
2023-04-18T06:11:15.622Z,146999.72
2023-04-18T06:12:17.867Z,147050.47
2023-04-18T06:13:20.088Z,147010.56
2023-04-18T06:14:22.566Z,147010.56
2023-04-18T06:15:25.733Z,147025.09
2023-04-18T06:16:28.111Z,147021.47
2023-04-18T06:17:30.360Z,147048.06
2023-04-18T06:18:32.671Z,147083.09
2023-04-18T06:19:34.826Z,147132.69
2023-04-18T06:20:36.968Z,147141.13
2023-04-18T06:21:41.933Z,147166.53
2023-04-18T06:22:44.060Z,147199.16
2023-04-18T06:23:46.224Z,147219.72
2023-04-18T06:24:48.430Z,147252.38
2023-04-18T06:25:50.645Z,147174.97
2023-04-18T06:26:54.976Z,147174.97
2023-04-18T06:27:57.173Z,147222.13
2023-04-18T06:28:59.362Z,147301.91
2023-04-18T06:30:01.800Z,147333.34
2023-04-18T06:31:04.120Z,147379.34
2023-04-18T06:32:06.399Z,147416.81
2023-04-18T06:33:10.998Z,147395.03
2023-04-18T06:34:13.500Z,147465.19
2023-04-18T06:35:16.465Z,147466.41
2023-04-18T06:36:19.179Z,147450.69
2023-04-18T06:37:21.365Z,147472.47
2023-04-18T06:38:23.607Z,147506.34
2023-04-18T06:39:25.837Z,147615.28
2023-04-18T06:40:28.120Z,147777.50
2023-04-18T06:41:31.369Z,147978.59
2023-04-18T06:42:33.603Z,148167.66
2023-04-18T06:43:38.489Z,148086.44
2023-04-18T06:44:42.844Z,148127.66
2023-04-18T06:45:45.526Z,148117.94
2023-04-18T06:46:47.728Z,148280.44
2023-04-18T06:47:51.313Z,148395.66
2023-04-18T06:48:53.579Z,148552.16
2023-04-18T06:49:55.794Z,148492.72
2023-04-18T06:50:57.966Z,148563.13
2023-04-18T06:52:00.228Z,148575.25
2023-04-18T06:53:02.399Z,148616.53
2023-04-18T06:54:04.578Z,148616.53
2023-04-18T06:55:09.016Z,148433.25
2023-04-18T06:56:11.244Z,148498.78
2023-04-18T06:57:13.501Z,148589.84
2023-04-18T06:58:17.329Z,148550.97
2023-04-18T06:59:21.433Z,148548.53
2023-04-18T07:00:23.643Z,148684.50
2023-04-18T07:01:25.872Z,148825.31
2023-04-18T07:02:28.180Z,148920.09
2023-04-18T07:03:31.637Z,148961.41
2023-04-18T07:04:34.149Z,149112.13
2023-04-18T07:05:37.526Z,149035.50
2023-04-18T07:06:39.852Z,148963.81
2023-04-18T07:07:41.986Z,148920.09
2023-04-18T07:08:44.121Z,148956.53
2023-04-18T07:09:46.274Z,148888.53
2023-04-18T07:10:48.398Z,149006.38
2023-04-18T07:11:52.428Z,149204.50
2023-04-18T07:12:54.618Z,149312.69
2023-04-18T07:13:56.807Z,149411.22
2023-04-18T07:14:58.930Z,149501.25
2023-04-18T07:16:01.650Z,149419.72
2023-04-18T07:17:03.932Z,149382.03
2023-04-18T07:18:06.158Z,149392.97
2023-04-18T07:19:08.618Z,149304.19
2023-04-18T07:20:12.329Z,149148.56
2023-04-18T07:21:16.168Z,148934.66
2023-04-18T07:22:18.383Z,148984.50
2023-04-18T07:23:20.528Z,149000.25
2023-04-18T07:24:23.644Z,148965.03
2023-04-18T07:25:25.831Z,149011.22
2023-04-18T07:26:28.045Z,149075.63
2023-04-18T07:27:30.769Z,149102.38
2023-04-18T07:28:33.281Z,149318.75
2023-04-18T07:29:36.122Z,149456.22
2023-04-18T07:30:38.314Z,149412.44
2023-04-18T07:31:40.577Z,149519.47
2023-04-18T07:32:42.772Z,149710.56
2023-04-18T07:33:44.936Z,149756.78
2023-04-18T07:34:47.133Z,149613.19
2023-04-18T07:35:50.285Z,149467.19
2023-04-18T07:36:52.552Z,149526.75
2023-04-18T07:37:54.759Z,149727.63
2023-04-18T07:38:57.801Z,149682.56
2023-04-18T07:39:59.941Z,149542.59
2023-04-18T07:41:03.292Z,149699.63
2023-04-18T07:42:05.685Z,149888.31
2023-04-18T07:43:08.167Z,149534.09
2023-04-18T07:44:10.746Z,149425.78
2023-04-18T07:45:12.926Z,149289.56
2023-04-18T07:46:15.253Z,149416.06
2023-04-18T07:47:22.171Z,149570.63
2023-04-18T07:48:27.510Z,149654.56
2023-04-18T07:49:29.646Z,149584.00
2023-04-18T07:50:31.821Z,149653.34
2023-04-18T07:51:34.972Z,149734.91
2023-04-18T07:52:38.319Z,149223.91
2023-04-18T07:53:43.355Z,149374.75
2023-04-18T07:54:45.566Z,149406.38
2023-04-18T07:55:48.211Z,149500.03
2023-04-18T07:56:50.338Z,149396.59
2023-04-18T07:57:52.555Z,149170.47
2023-04-18T07:58:54.759Z,149082.91
2023-04-18T07:59:56.980Z,149148.56
2023-04-18T08:00:59.207Z,149164.34
2023-04-18T08:02:01.410Z,149288.34
2023-04-18T08:03:03.881Z,149267.72
2023-04-18T08:04:06.297Z,149399.09
2023-04-18T08:05:09.814Z,149462.28
2023-04-18T08:06:12.046Z,149591.28
2023-04-18T08:07:14.158Z,149535.31
2023-04-18T08:08:16.830Z,149664.31
2023-04-18T08:09:20.555Z,149557.16
2023-04-18T08:10:23.828Z,149497.59
2023-04-18T08:11:26.964Z,149118.19
2023-04-18T08:12:29.101Z,149127.91
2023-04-18T08:13:31.516Z,149209.34
2023-04-18T08:14:33.694Z,149301.75
2023-04-18T08:15:35.841Z,149311.47
2023-04-18T08:16:39.298Z,149401.50
2023-04-18T08:17:43.910Z,149311.47
2023-04-18T08:18:46.196Z,149305.41
2023-04-18T08:19:48.348Z,149194.75
2023-04-18T08:20:50.653Z,149382.03
2023-04-18T08:21:52.814Z,149474.47
2023-04-18T08:24:00.362Z,149622.91
2023-04-18T08:25:05.495Z,149736.13
2023-04-18T08:26:08.081Z,149536.50
2023-04-18T08:27:10.393Z,149630.25
2023-04-18T08:28:13.295Z,149622.91
2023-04-18T08:29:15.602Z,149742.19
2023-04-18T08:30:17.847Z,149705.69
2023-04-18T08:31:20.137Z,149523.09
2023-04-18T08:32:22.546Z,149602.25
2023-04-18T08:33:24.978Z,149557.16
2023-04-18T08:34:28.847Z,149545.03
2023-04-18T08:35:31.131Z,149513.38
2023-04-18T08:36:33.256Z,149666.75
2023-04-18T08:37:35.450Z,149593.72
2023-04-18T08:38:37.734Z,149632.69
2023-04-18T08:39:40.036Z,149691.06
2023-04-18T08:40:43.588Z,149473.25
2023-04-18T08:41:51.397Z,149590.06
2023-04-18T08:42:55.356Z,149513.38
2023-04-18T08:43:57.526Z,149549.88
2023-04-18T08:45:00.464Z,149412.44
2023-04-18T08:46:02.688Z,149430.66
2023-04-18T08:47:07.754Z,149464.75
2023-04-18T08:48:14.501Z,149406.38
2023-04-18T08:49:17.603Z,149364.97
2023-04-18T08:50:20.051Z,149442.84
2023-04-18T08:52:39.425Z,149661.91
2023-04-18T08:53:42.131Z,149545.03
2023-04-18T08:54:46.674Z,149758.00
2023-04-18T08:55:57.204Z,149832.34
2023-04-18T08:57:07.514Z,149876.16
2023-04-18T08:58:12.352Z,149734.91
2023-04-18T08:59:14.849Z,149704.47
2023-04-18T09:00:17.997Z,149816.50
2023-04-18T09:01:21.430Z,149927.31
2023-04-18T09:02:39.097Z,149979.66
2023-04-18T09:03:42.544Z,149996.78
2023-04-18T09:04:49.008Z,150015.00
2023-04-18T09:06:25.199Z,150004.06
2023-04-18T09:07:29.395Z,150156.34
2023-04-18T09:08:31.594Z,150152.72
2023-04-18T09:09:41.273Z,150359.91
2023-04-18T09:10:46.517Z,150127.13
2023-04-18T09:11:48.918Z,150331.88
2023-04-18T09:12:52.042Z,150097.88
2023-04-18T09:13:56.464Z,150146.59
2023-04-18T09:15:20.793Z,150073.50
2023-04-18T09:16:23.771Z,149924.88
2023-04-18T09:17:34.731Z,149844.50
2023-04-18T09:18:36.944Z,149839.63
2023-04-18T09:19:46.830Z,149961.41
2023-04-18T09:20:49.856Z,149877.38
2023-04-18T09:21:59.911Z,149926.09
2023-04-18T09:23:04.847Z,149859.13
2023-04-18T09:24:29.259Z,149944.34
2023-04-18T09:25:40.134Z,150085.66
2023-04-18T09:26:44.302Z,150192.97
2023-04-18T09:27:47.265Z,150394.09
2023-04-18T09:28:53.987Z,150330.66
2023-04-18T09:29:58.027Z,150427.03
2023-04-18T09:31:15.200Z,150380.66
2023-04-18T09:32:25.081Z,150090.56
2023-04-18T09:33:28.524Z,150066.19
2023-04-18T09:34:34.002Z,149849.34
2023-04-18T09:35:37.688Z,149725.13
2023-04-18T09:36:39.916Z,149842.06
2023-04-18T09:37:51.138Z,150036.97
2023-04-18T09:38:56.642Z,149855.44
2023-04-18T09:39:59.444Z,149935.81
2023-04-18T09:41:11.770Z,150139.28
2023-04-18T09:42:14.099Z,149937.03
2023-04-18T09:43:21.360Z,150095.44
2023-04-18T09:44:23.544Z,150091.78
2023-04-18T09:45:26.405Z,150121.03
2023-04-18T09:46:29.063Z,149865.22
2023-04-18T09:47:32.728Z,149905.38
2023-04-18T09:48:35.257Z,149976.00
2023-04-18T09:49:37.396Z,149890.78
2023-04-18T09:50:41.394Z,149829.91
2023-04-18T09:51:44.644Z,149828.69
2023-04-18T09:52:48.264Z,149954.06
2023-04-18T09:53:51.087Z,149956.56
2023-04-18T09:54:59.997Z,149708.13
2023-04-18T09:56:03.217Z,149618.06
2023-04-18T09:57:11.226Z,149564.56
2023-04-18T09:58:14.829Z,149537.72
2023-04-18T09:59:33.251Z,149771.41
2023-04-18T10:00:37.285Z,149553.53
2023-04-18T10:01:41.174Z,149646.06
2023-04-18T10:03:09.911Z,149902.94
2023-04-18T10:04:14.029Z,149907.81
2023-04-18T10:05:20.754Z,149867.66
2023-04-18T10:06:27.347Z,149934.63
2023-04-18T10:07:31.462Z,150083.22
2023-04-18T10:08:34.431Z,150118.56
2023-04-18T10:09:36.834Z,150272.16
2023-04-18T10:10:40.608Z,150453.84
2023-04-18T10:11:43.360Z,150561.16
2023-04-18T10:12:48.014Z,150473.34
2023-04-18T10:13:56.216Z,149962.63
2023-04-18T10:14:59.864Z,150136.84
2023-04-18T10:16:03.036Z,150346.50
2023-04-18T10:17:06.020Z,150379.44
2023-04-18T10:18:15.390Z,150160.00
2023-04-18T10:19:26.479Z,150295.31
2023-04-18T10:20:30.345Z,150123.47
2023-04-18T10:21:32.472Z,150302.63
2023-04-18T10:22:35.857Z,150501.38
2023-04-18T10:23:39.771Z,150617.31
2023-04-18T10:24:54.149Z,150577.03
2023-04-18T10:25:56.515Z,150453.84
2023-04-18T10:26:58.729Z,150756.41
2023-04-18T10:28:02.453Z,150832.06
2023-04-18T10:29:04.832Z,150685.63
2023-04-18T10:30:09.068Z,150422.16
2023-04-18T10:31:11.789Z,150484.34
2023-04-18T10:32:14.019Z,150589.25
2023-04-18T10:33:35.854Z,150614.88
2023-04-18T10:34:46.425Z,150500.16
2023-04-18T10:36:00.728Z,150205.13
2023-04-18T10:37:06.219Z,150007.72
2023-04-18T10:38:17.086Z,149993.13
2023-04-18T10:39:24.270Z,149983.31
2023-04-18T10:40:34.219Z,150214.84
2023-04-18T10:41:49.488Z,150280.66
2023-04-18T10:42:52.639Z,150406.28
2023-04-18T10:44:18.193Z,150461.16
2023-04-18T10:45:24.722Z,150234.38
2023-04-18T10:46:32.389Z,150170.97
2023-04-18T10:47:35.257Z,150122.25
2023-04-18T10:48:39.174Z,150030.88
2023-04-18T10:49:53.539Z,150174.63
2023-04-18T10:51:15.775Z,150379.44
2023-04-18T10:52:17.975Z,150313.56
2023-04-18T10:53:20.792Z,150246.53
2023-04-18T10:54:28.872Z,150458.72
2023-04-18T10:55:31.453Z,150629.50
2023-04-18T10:56:33.758Z,150879.69
2023-04-18T10:57:46.780Z,150763.72
2023-04-18T10:58:52.986Z,150451.41
2023-04-18T10:59:55.723Z,150623.41
2023-04-18T11:00:58.975Z,150557.50
2023-04-18T11:02:24.184Z,150512.34
2023-04-18T11:03:35.636Z,150263.63
2023-04-18T11:04:39.010Z,150117.34
2023-04-18T11:05:41.219Z,150105.16
2023-04-18T11:06:51.623Z,149962.63
2023-04-18T11:07:54.412Z,149885.88
2023-04-18T11:09:13.709Z,149961.41
2023-04-18T11:10:26.873Z,149944.34
2023-04-18T11:11:29.138Z,149859.13
2023-04-18T11:12:36.579Z,149703.25
2023-04-18T11:13:55.397Z,149871.28
2023-04-18T11:14:57.832Z,149825.03
2023-04-18T11:16:00.026Z,149810.41
2023-04-18T11:17:40.238Z,149686.19
2023-04-18T11:18:42.486Z,149515.81
2023-04-18T11:19:44.822Z,149596.19
2023-04-18T11:20:49.687Z,149486.63
2023-04-18T11:21:51.841Z,149418.50
2023-04-18T11:22:59.272Z,149223.91
2023-04-18T11:24:02.470Z,149082.91
2023-04-18T11:25:08.131Z,149005.16
2023-04-18T11:26:12.816Z,148928.59
2023-04-18T11:27:15.031Z,148871.50
2023-04-18T11:28:20.913Z,148917.69
2023-04-18T11:29:23.178Z,148944.41
2023-04-18T11:30:25.756Z,148944.41
2023-04-18T11:31:27.940Z,149007.59
2023-04-18T11:32:30.555Z,149208.13
2023-04-18T11:33:32.726Z,149431.91
2023-04-18T11:34:38.329Z,149270.13
2023-04-18T11:35:42.261Z,149343.13
2023-04-18T11:36:47.965Z,149345.56
2023-04-18T11:37:51.212Z,149221.50
2023-04-18T11:38:54.483Z,149138.88
2023-04-18T11:39:57.468Z,149146.16
2023-04-18T11:41:02.481Z,149315.09
2023-04-18T11:42:04.763Z,149395.38
2023-04-18T11:43:07.655Z,149357.69
2023-04-18T11:44:09.853Z,149442.84
2023-04-18T11:45:15.650Z,149676.47
2023-04-18T11:46:17.983Z,149798.25
2023-04-18T11:47:22.929Z,149764.13
2023-04-18T11:48:34.920Z,149951.63
2023-04-18T11:49:37.111Z,149963.84
2023-04-18T11:50:39.406Z,149881.03
2023-04-18T11:51:46.195Z,149854.22
2023-04-18T11:52:51.129Z,149776.28
2023-04-18T11:53:53.286Z,149598.63
2023-04-18T11:54:56.593Z,149518.25
2023-04-18T11:55:59.583Z,149363.78
2023-04-18T11:57:02.387Z,149373.53
2023-04-18T11:58:05.999Z,149440.41
2023-04-18T11:59:09.382Z,149374.75
2023-04-18T12:00:12.554Z,149478.13
2023-04-18T12:01:24.835Z,149447.72
2023-04-18T12:02:48.040Z,149419.72
2023-04-18T12:04:05.417Z,149289.56
2023-04-18T12:05:08.472Z,149327.25
2023-04-18T12:06:11.070Z,149364.97
2023-04-18T12:07:13.374Z,149375.97
2023-04-18T12:08:21.300Z,149440.41
2023-04-18T12:09:25.020Z,149428.22
2023-04-18T12:10:29.729Z,149337.06
2023-04-18T12:11:31.902Z,149364.97
2023-04-18T12:12:34.480Z,149430.66
2023-04-18T12:13:36.640Z,149433.13
2023-04-18T12:14:38.763Z,149321.19
2023-04-18T12:15:43.894Z,149450.13